sensor_id;sensor_type;location;lat;lon;timestamp;temperature;humidity
25923;DHT22;13725;51.170;4.442;2023-08-17T00:01:54;20.40;99.90
25923;DHT22;13725;51.170;4.442;2023-08-17T00:04:20;20.40;99.90
25923;DHT22;13725;51.170;4.442;2023-08-17T00:06:46;20.40;99.90
25923;DHT22;13725;51.170;4.442;2023-08-17T00:09:12;20.30;99.90
25923;DHT22;13725;51.170;4.442;2023-08-17T00:11:38;20.20;99.90
25923;DHT22;13725;51.170;4.442;2023-08-17T00:14:05;20.20;99.90
25923;DHT22;13725;51.170;4.442;2023-08-17T00:16:31;20.10;99.90
25923;DHT22;13725;51.170;4.442;2023-08-17T00:18:57;20.20;99.90
25923;DHT22;13725;51.170;4.442;2023-08-17T00:21:23;20.10;99.90
25923;DHT22;13725;51.170;4.442;2023-08-17T00:23:49;20.20;99.90
25923;DHT22;13725;51.170;4.442;2023-08-17T00:26:15;20.10;99.90
25923;DHT22;13725;51.170;4.442;2023-08-17T00:28:41;20.20;99.90
25923;DHT22;13725;51.170;4.442;2023-08-17T00:31:07;20.20;99.90
25923;DHT22;13725;51.170;4.442;2023-08-17T00:33:33;20.20;99.90
25923;DHT22;13725;51.170;4.442;2023-08-17T00:35:58;20.10;99.90
25923;DHT22;13725;51.170;4.442;2023-08-17T00:38:25;20.10;99.90
25923;DHT22;13725;51.170;4.442;2023-08-17T00:40:51;20.00;99.90
25923;DHT22;13725;51.170;4.442;2023-08-17T00:43:16;19.90;99.90
25923;DHT22;13725;51.170;4.442;2023-08-17T00:45:44;19.80;99.90
25923;DHT22;13725;51.170;4.442;2023-08-17T00:48:11;19.80;99.90
25923;DHT22;13725;51.170;4.442;2023-08-17T00:50:38;19.70;99.90
25923;DHT22;13725;51.170;4.442;2023-08-17T00:53:05;19.60;99.90
25923;DHT22;13725;51.170;4.442;2023-08-17T00:55:31;19.60;99.90
25923;DHT22;13725;51.170;4.442;2023-08-17T00:57:57;19.50;99.90
25923;DHT22;13725;51.170;4.442;2023-08-17T01:00:24;19.50;99.90
25923;DHT22;13725;51.170;4.442;2023-08-17T01:02:54;19.40;99.90
25923;DHT22;13725;51.170;4.442;2023-08-17T01:05:21;19.40;99.90
25923;DHT22;13725;51.170;4.442;2023-08-17T01:07:47;19.40;99.90
25923;DHT22;13725;51.170;4.442;2023-08-17T01:10:14;19.40;99.90
25923;DHT22;13725;51.170;4.442;2023-08-17T01:12:46;19.50;99.90
25923;DHT22;13725;51.170;4.442;2023-08-17T01:15:49;19.60;99.90
25923;DHT22;13725;51.170;4.442;2023-08-17T01:18:26;19.60;99.90
25923;DHT22;13725;51.170;4.442;2023-08-17T01:20:54;19.60;99.90
25923;DHT22;13725;51.170;4.442;2023-08-17T01:23:22;19.70;99.90
25923;DHT22;13725;51.170;4.442;2023-08-17T01:25:48;19.70;99.90
25923;DHT22;13725;51.170;4.442;2023-08-17T01:28:15;19.80;99.90
25923;DHT22;13725;51.170;4.442;2023-08-17T01:30:49;19.80;99.90
25923;DHT22;13725;51.170;4.442;2023-08-17T01:33:36;19.80;99.90
25923;DHT22;13725;51.170;4.442;2023-08-17T01:36:25;19.80;99.90
25923;DHT22;13725;51.170;4.442;2023-08-17T01:38:52;19.80;99.90
25923;DHT22;13725;51.170;4.442;2023-08-17T01:41:23;19.70;99.90
25923;DHT22;13725;51.170;4.442;2023-08-17T01:43:50;19.80;99.90
25923;DHT22;13725;51.170;4.442;2023-08-17T01:46:17;19.80;99.90
25923;DHT22;13725;51.170;4.442;2023-08-17T01:48:46;19.80;99.90
25923;DHT22;13725;51.170;4.442;2023-08-17T01:51:18;19.80;99.90
25923;DHT22;13725;51.170;4.442;2023-08-17T01:53:47;19.80;99.90
25923;DHT22;13725;51.170;4.442;2023-08-17T01:56:13;19.70;99.90
25923;DHT22;13725;51.170;4.442;2023-08-17T01:58:39;19.70;99.90
25923;DHT22;13725;51.170;4.442;2023-08-17T02:01:05;19.70;99.90
25923;DHT22;13725;51.170;4.442;2023-08-17T02:03:31;19.70;99.90
25923;DHT22;13725;51.170;4.442;2023-08-17T02:05:58;19.70;99.90
25923;DHT22;13725;51.170;4.442;2023-08-17T02:08:24;19.60;99.90
25923;DHT22;13725;51.170;4.442;2023-08-17T02:10:51;19.60;99.90
25923;DHT22;13725;51.170;4.442;2023-08-17T02:13:19;19.60;99.90
25923;DHT22;13725;51.170;4.442;2023-08-17T02:15:48;19.60;99.90
25923;DHT22;13725;51.170;4.442;2023-08-17T02:18:14;19.70;99.90
25923;DHT22;13725;51.170;4.442;2023-08-17T02:20:40;19.70;99.90
25923;DHT22;13725;51.170;4.442;2023-08-17T02:23:06;19.60;99.90
25923;DHT22;13725;51.170;4.442;2023-08-17T02:25:31;19.50;99.90
25923;DHT22;13725;51.170;4.442;2023-08-17T02:28:03;19.50;99.90
25923;DHT22;13725;51.170;4.442;2023-08-17T02:30:29;19.50;99.90
25923;DHT22;13725;51.170;4.442;2023-08-17T02:32:57;19.40;99.90
25923;DHT22;13725;51.170;4.442;2023-08-17T02:35:24;19.40;99.90
25923;DHT22;13725;51.170;4.442;2023-08-17T02:37:50;19.40;99.90
25923;DHT22;13725;51.170;4.442;2023-08-17T02:40:16;19.30;99.90
25923;DHT22;13725;51.170;4.442;2023-08-17T02:42:41;19.20;99.90
25923;DHT22;13725;51.170;4.442;2023-08-17T02:45:08;19.20;99.90
25923;DHT22;13725;51.170;4.442;2023-08-17T02:47:35;19.10;99.90
25923;DHT22;13725;51.170;4.442;2023-08-17T02:50:01;19.00;99.90
25923;DHT22;13725;51.170;4.442;2023-08-17T02:52:26;18.90;99.90
25923;DHT22;13725;51.170;4.442;2023-08-17T02:54:52;18.90;99.90
25923;DHT22;13725;51.170;4.442;2023-08-17T02:57:18;18.80;99.90
25923;DHT22;13725;51.170;4.442;2023-08-17T02:59:45;18.80;99.90
25923;DHT22;13725;51.170;4.442;2023-08-17T03:02:11;18.70;99.90
25923;DHT22;13725;51.170;4.442;2023-08-17T03:04:37;18.70;99.90
25923;DHT22;13725;51.170;4.442;2023-08-17T03:07:03;18.70;99.90
25923;DHT22;13725;51.170;4.442;2023-08-17T03:09:28;18.70;99.90
25923;DHT22;13725;51.170;4.442;2023-08-17T03:11:55;18.70;99.90
25923;DHT22;13725;51.170;4.442;2023-08-17T03:14:20;18.70;99.90
25923;DHT22;13725;51.170;4.442;2023-08-17T03:16:47;18.60;99.90
25923;DHT22;13725;51.170;4.442;2023-08-17T03:19:14;18.60;99.90
25923;DHT22;13725;51.170;4.442;2023-08-17T03:21:42;18.50;99.90
25923;DHT22;13725;51.170;4.442;2023-08-17T03:24:08;18.50;99.90
25923;DHT22;13725;51.170;4.442;2023-08-17T03:26:35;18.50;99.90
25923;DHT22;13725;51.170;4.442;2023-08-17T03:29:00;18.40;99.90
25923;DHT22;13725;51.170;4.442;2023-08-17T03:31:26;18.40;99.90
25923;DHT22;13725;51.170;4.442;2023-08-17T03:33:52;18.40;99.90
25923;DHT22;13725;51.170;4.442;2023-08-17T03:36:19;18.40;99.90
25923;DHT22;13725;51.170;4.442;2023-08-17T03:38:45;18.40;99.90
25923;DHT22;13725;51.170;4.442;2023-08-17T03:41:10;18.40;99.90
25923;DHT22;13725;51.170;4.442;2023-08-17T03:43:36;18.40;99.90
25923;DHT22;13725;51.170;4.442;2023-08-17T03:46:04;18.50;99.90
25923;DHT22;13725;51.170;4.442;2023-08-17T03:48:30;18.60;99.90
25923;DHT22;13725;51.170;4.442;2023-08-17T03:50:56;18.70;99.90
25923;DHT22;13725;51.170;4.442;2023-08-17T03:53:22;18.80;99.90
25923;DHT22;13725;51.170;4.442;2023-08-17T03:55:49;18.80;99.90
25923;DHT22;13725;51.170;4.442;2023-08-17T03:58:15;18.90;99.90
25923;DHT22;13725;51.170;4.442;2023-08-17T04:00:41;19.00;99.90
25923;DHT22;13725;51.170;4.442;2023-08-17T04:03:08;19.00;99.90
25923;DHT22;13725;51.170;4.442;2023-08-17T04:05:34;19.00;99.90
25923;DHT22;13725;51.170;4.442;2023-08-17T04:08:00;19.00;99.90
25923;DHT22;13725;51.170;4.442;2023-08-17T04:10:31;19.00;99.90
25923;DHT22;13725;51.170;4.442;2023-08-17T04:12:58;19.10;99.90
25923;DHT22;13725;51.170;4.442;2023-08-17T04:15:23;19.10;99.90
25923;DHT22;13725;51.170;4.442;2023-08-17T04:17:49;19.10;99.90
25923;DHT22;13725;51.170;4.442;2023-08-17T04:20:15;19.20;99.90
25923;DHT22;13725;51.170;4.442;2023-08-17T04:22:41;19.20;99.90
25923;DHT22;13725;51.170;4.442;2023-08-17T04:25:07;19.20;99.90
25923;DHT22;13725;51.170;4.442;2023-08-17T04:27:33;19.20;99.90
25923;DHT22;13725;51.170;4.442;2023-08-17T04:30:00;19.20;99.90
25923;DHT22;13725;51.170;4.442;2023-08-17T04:32:29;19.20;99.90
25923;DHT22;13725;51.170;4.442;2023-08-17T04:34:55;19.20;99.90
25923;DHT22;13725;51.170;4.442;2023-08-17T04:37:21;19.10;99.90
25923;DHT22;13725;51.170;4.442;2023-08-17T04:39:47;19.10;99.90
25923;DHT22;13725;51.170;4.442;2023-08-17T04:42:18;19.10;99.90
25923;DHT22;13725;51.170;4.442;2023-08-17T04:44:46;19.10;99.90
25923;DHT22;13725;51.170;4.442;2023-08-17T04:47:11;19.10;99.90
25923;DHT22;13725;51.170;4.442;2023-08-17T04:49:37;19.00;99.90
25923;DHT22;13725;51.170;4.442;2023-08-17T04:52:04;19.00;99.90
25923;DHT22;13725;51.170;4.442;2023-08-17T04:54:30;19.00;99.90
25923;DHT22;13725;51.170;4.442;2023-08-17T04:56:56;19.00;99.90
25923;DHT22;13725;51.170;4.442;2023-08-17T04:59:22;19.10;99.90
25923;DHT22;13725;51.170;4.442;2023-08-17T05:01:48;19.10;99.90
25923;DHT22;13725;51.170;4.442;2023-08-17T05:04:13;19.10;99.90
25923;DHT22;13725;51.170;4.442;2023-08-17T05:06:39;19.10;99.90
25923;DHT22;13725;51.170;4.442;2023-08-17T05:09:05;19.10;99.90
25923;DHT22;13725;51.170;4.442;2023-08-17T05:11:31;19.10;99.90
25923;DHT22;13725;51.170;4.442;2023-08-17T05:13:57;19.20;99.90
25923;DHT22;13725;51.170;4.442;2023-08-17T05:16:23;19.20;99.90
25923;DHT22;13725;51.170;4.442;2023-08-17T05:18:50;19.30;99.90
25923;DHT22;13725;51.170;4.442;2023-08-17T05:21:16;19.20;99.90
25923;DHT22;13725;51.170;4.442;2023-08-17T05:23:43;19.20;99.90
25923;DHT22;13725;51.170;4.442;2023-08-17T05:26:09;19.20;99.90
25923;DHT22;13725;51.170;4.442;2023-08-17T05:28:34;19.20;99.90
25923;DHT22;13725;51.170;4.442;2023-08-17T05:31:06;19.30;99.90
25923;DHT22;13725;51.170;4.442;2023-08-17T05:33:35;19.20;99.90
25923;DHT22;13725;51.170;4.442;2023-08-17T05:36:00;19.20;99.90
25923;DHT22;13725;51.170;4.442;2023-08-17T05:38:26;19.10;99.90
25923;DHT22;13725;51.170;4.442;2023-08-17T05:40:56;19.20;99.90
25923;DHT22;13725;51.170;4.442;2023-08-17T05:43:23;19.20;99.90
25923;DHT22;13725;51.170;4.442;2023-08-17T05:45:49;19.30;99.90
25923;DHT22;13725;51.170;4.442;2023-08-17T05:48:15;19.30;99.90
25923;DHT22;13725;51.170;4.442;2023-08-17T05:50:43;19.20;99.90
25923;DHT22;13725;51.170;4.442;2023-08-17T05:53:09;19.20;99.90
25923;DHT22;13725;51.170;4.442;2023-08-17T05:55:35;19.10;99.90
25923;DHT22;13725;51.170;4.442;2023-08-17T05:58:02;19.20;99.90
25923;DHT22;13725;51.170;4.442;2023-08-17T06:00:30;19.30;99.90
25923;DHT22;13725;51.170;4.442;2023-08-17T06:02:55;19.30;99.90
25923;DHT22;13725;51.170;4.442;2023-08-17T06:05:29;19.40;99.90
25923;DHT22;13725;51.170;4.442;2023-08-17T06:07:56;19.40;99.90
25923;DHT22;13725;51.170;4.442;2023-08-17T06:10:23;19.40;99.90
25923;DHT22;13725;51.170;4.442;2023-08-17T06:12:55;19.30;99.90
25923;DHT22;13725;51.170;4.442;2023-08-17T06:15:22;19.30;99.90
25923;DHT22;13725;51.170;4.442;2023-08-17T06:17:48;19.40;99.90
25923;DHT22;13725;51.170;4.442;2023-08-17T06:20:17;19.40;99.90
25923;DHT22;13725;51.170;4.442;2023-08-17T06:22:44;19.40;99.90
25923;DHT22;13725;51.170;4.442;2023-08-17T06:25:10;19.60;99.90
25923;DHT22;13725;51.170;4.442;2023-08-17T06:27:37;19.70;99.90
25923;DHT22;13725;51.170;4.442;2023-08-17T06:30:03;19.70;99.90
25923;DHT22;13725;51.170;4.442;2023-08-17T06:32:32;19.70;99.90
25923;DHT22;13725;51.170;4.442;2023-08-17T06:34:58;19.60;99.90
25923;DHT22;13725;51.170;4.442;2023-08-17T06:37:24;19.70;99.90
25923;DHT22;13725;51.170;4.442;2023-08-17T06:39:50;19.70;99.90
25923;DHT22;13725;51.170;4.442;2023-08-17T06:42:16;19.70;99.90
25923;DHT22;13725;51.170;4.442;2023-08-17T06:44:42;19.70;99.90
25923;DHT22;13725;51.170;4.442;2023-08-17T06:47:07;19.60;99.90
25923;DHT22;13725;51.170;4.442;2023-08-17T06:49:34;19.70;99.90
25923;DHT22;13725;51.170;4.442;2023-08-17T06:52:00;19.70;99.90
25923;DHT22;13725;51.170;4.442;2023-08-17T06:54:27;19.70;99.90
25923;DHT22;13725;51.170;4.442;2023-08-17T06:56:53;19.60;99.90
25923;DHT22;13725;51.170;4.442;2023-08-17T06:59:18;19.60;99.90
25923;DHT22;13725;51.170;4.442;2023-08-17T07:01:44;19.50;99.90
25923;DHT22;13725;51.170;4.442;2023-08-17T07:04:10;19.60;99.90
25923;DHT22;13725;51.170;4.442;2023-08-17T07:06:37;19.60;99.90
25923;DHT22;13725;51.170;4.442;2023-08-17T07:09:03;19.60;99.90
25923;DHT22;13725;51.170;4.442;2023-08-17T07:11:31;19.50;99.90
25923;DHT22;13725;51.170;4.442;2023-08-17T07:13:56;19.60;99.90
25923;DHT22;13725;51.170;4.442;2023-08-17T07:16:22;19.80;99.90
25923;DHT22;13725;51.170;4.442;2023-08-17T07:18:48;19.90;99.90
25923;DHT22;13725;51.170;4.442;2023-08-17T07:21:14;20.10;99.90
25923;DHT22;13725;51.170;4.442;2023-08-17T07:23:43;20.40;99.90
25923;DHT22;13725;51.170;4.442;2023-08-17T07:26:09;21.00;99.90
25923;DHT22;13725;51.170;4.442;2023-08-17T07:28:35;21.70;99.90
25923;DHT22;13725;51.170;4.442;2023-08-17T07:31:00;23.00;99.90
25923;DHT22;13725;51.170;4.442;2023-08-17T07:33:26;23.70;99.90
25923;DHT22;13725;51.170;4.442;2023-08-17T07:35:52;24.00;99.90
25923;DHT22;13725;51.170;4.442;2023-08-17T07:38:20;23.90;99.90
25923;DHT22;13725;51.170;4.442;2023-08-17T07:40:45;23.50;99.90
25923;DHT22;13725;51.170;4.442;2023-08-17T07:43:11;23.30;99.90
25923;DHT22;13725;51.170;4.442;2023-08-17T07:45:37;23.20;99.90
25923;DHT22;13725;51.170;4.442;2023-08-17T07:48:03;23.20;99.90
25923;DHT22;13725;51.170;4.442;2023-08-17T07:50:28;22.80;99.90
25923;DHT22;13725;51.170;4.442;2023-08-17T07:52:54;22.40;99.90
25923;DHT22;13725;51.170;4.442;2023-08-17T07:55:21;22.20;99.90
25923;DHT22;13725;51.170;4.442;2023-08-17T07:57:47;22.10;99.90
25923;DHT22;13725;51.170;4.442;2023-08-17T08:00:13;22.00;99.90
25923;DHT22;13725;51.170;4.442;2023-08-17T08:02:39;22.00;99.90
25923;DHT22;13725;51.170;4.442;2023-08-17T08:05:05;22.20;99.90
25923;DHT22;13725;51.170;4.442;2023-08-17T08:07:31;22.30;99.90
25923;DHT22;13725;51.170;4.442;2023-08-17T08:09:57;22.40;99.90
25923;DHT22;13725;51.170;4.442;2023-08-17T08:12:23;22.40;99.90
25923;DHT22;13725;51.170;4.442;2023-08-17T08:14:49;22.50;99.90
25923;DHT22;13725;51.170;4.442;2023-08-17T08:17:16;22.60;99.90
25923;DHT22;13725;51.170;4.442;2023-08-17T08:19:43;22.50;99.90
25923;DHT22;13725;51.170;4.442;2023-08-17T08:22:09;22.60;99.90
25923;DHT22;13725;51.170;4.442;2023-08-17T08:24:34;22.60;99.90
25923;DHT22;13725;51.170;4.442;2023-08-17T08:27:01;22.50;99.90
25923;DHT22;13725;51.170;4.442;2023-08-17T08:29:27;22.60;99.90
25923;DHT22;13725;51.170;4.442;2023-08-17T08:31:53;22.70;99.90
25923;DHT22;13725;51.170;4.442;2023-08-17T08:34:19;22.70;99.90
25923;DHT22;13725;51.170;4.442;2023-08-17T08:36:45;22.40;99.90
25923;DHT22;13725;51.170;4.442;2023-08-17T08:39:11;22.10;99.90
25923;DHT22;13725;51.170;4.442;2023-08-17T08:41:38;22.10;99.90
25923;DHT22;13725;51.170;4.442;2023-08-17T08:44:04;22.10;99.90
25923;DHT22;13725;51.170;4.442;2023-08-17T08:46:32;22.10;99.90
25923;DHT22;13725;51.170;4.442;2023-08-17T08:48:59;22.10;99.90
25923;DHT22;13725;51.170;4.442;2023-08-17T08:51:27;22.20;99.90
25923;DHT22;13725;51.170;4.442;2023-08-17T08:54:03;22.30;99.90
25923;DHT22;13725;51.170;4.442;2023-08-17T08:56:32;22.20;99.90
25923;DHT22;13725;51.170;4.442;2023-08-17T08:59:01;22.20;99.90
25923;DHT22;13725;51.170;4.442;2023-08-17T09:01:30;22.10;99.90
25923;DHT22;13725;51.170;4.442;2023-08-17T09:03:57;22.00;99.90
25923;DHT22;13725;51.170;4.442;2023-08-17T09:06:25;22.10;99.90
25923;DHT22;13725;51.170;4.442;2023-08-17T09:08:53;22.30;99.90
25923;DHT22;13725;51.170;4.442;2023-08-17T09:11:19;22.40;99.90
25923;DHT22;13725;51.170;4.442;2023-08-17T09:13:44;22.60;99.90
25923;DHT22;13725;51.170;4.442;2023-08-17T09:16:10;22.50;99.90
25923;DHT22;13725;51.170;4.442;2023-08-17T09:18:36;22.50;99.90
25923;DHT22;13725;51.170;4.442;2023-08-17T09:21:02;22.60;99.90
25923;DHT22;13725;51.170;4.442;2023-08-17T09:23:28;22.70;99.90
25923;DHT22;13725;51.170;4.442;2023-08-17T09:25:54;23.00;99.90
25923;DHT22;13725;51.170;4.442;2023-08-17T09:28:24;23.30;99.90
25923;DHT22;13725;51.170;4.442;2023-08-17T09:33:26;24.00;99.90
25923;DHT22;13725;51.170;4.442;2023-08-17T09:35:54;24.30;99.90
25923;DHT22;13725;51.170;4.442;2023-08-17T09:38:20;24.40;99.90
25923;DHT22;13725;51.170;4.442;2023-08-17T09:40:48;24.60;99.90
25923;DHT22;13725;51.170;4.442;2023-08-17T09:43:17;24.80;99.90
25923;DHT22;13725;51.170;4.442;2023-08-17T09:45:45;24.60;99.90
25923;DHT22;13725;51.170;4.442;2023-08-17T09:48:16;24.30;99.90
25923;DHT22;13725;51.170;4.442;2023-08-17T09:50:44;24.30;99.90
25923;DHT22;13725;51.170;4.442;2023-08-17T09:53:14;24.60;99.90
25923;DHT22;13725;51.170;4.442;2023-08-17T09:55:41;25.30;99.90
25923;DHT22;13725;51.170;4.442;2023-08-17T09:58:08;25.40;99.90
25923;DHT22;13725;51.170;4.442;2023-08-17T10:00:34;25.70;99.90
25923;DHT22;13725;51.170;4.442;2023-08-17T10:03:04;26.20;99.90
25923;DHT22;13725;51.170;4.442;2023-08-17T10:05:35;25.80;99.90
25923;DHT22;13725;51.170;4.442;2023-08-17T10:08:05;26.10;99.90
25923;DHT22;13725;51.170;4.442;2023-08-17T10:10:35;26.40;99.90
25923;DHT22;13725;51.170;4.442;2023-08-17T10:13:22;26.40;99.90
25923;DHT22;13725;51.170;4.442;2023-08-17T10:16:02;26.80;99.90
25923;DHT22;13725;51.170;4.442;2023-08-17T10:18:53;27.00;99.90
25923;DHT22;13725;51.170;4.442;2023-08-17T10:21:50;27.20;99.90
25923;DHT22;13725;51.170;4.442;2023-08-17T10:24:14;27.10;99.90
25923;DHT22;13725;51.170;4.442;2023-08-17T10:26:41;26.50;99.90
25923;DHT22;13725;51.170;4.442;2023-08-17T10:29:07;26.10;99.90
25923;DHT22;13725;51.170;4.442;2023-08-17T10:31:37;26.00;99.90
25923;DHT22;13725;51.170;4.442;2023-08-17T10:34:03;25.90;99.90
25923;DHT22;13725;51.170;4.442;2023-08-17T10:36:31;25.60;99.90
25923;DHT22;13725;51.170;4.442;2023-08-17T10:39:23;25.60;99.90
25923;DHT22;13725;51.170;4.442;2023-08-17T10:41:50;25.50;99.90
25923;DHT22;13725;51.170;4.442;2023-08-17T10:44:18;25.30;99.90
25923;DHT22;13725;51.170;4.442;2023-08-17T10:47:26;25.30;99.90
25923;DHT22;13725;51.170;4.442;2023-08-17T10:50:03;25.40;99.90
25923;DHT22;13725;51.170;4.442;2023-08-17T10:52:34;25.40;99.90
25923;DHT22;13725;51.170;4.442;2023-08-17T10:55:09;25.40;99.90
25923;DHT22;13725;51.170;4.442;2023-08-17T10:57:45;25.10;99.90
25923;DHT22;13725;51.170;4.442;2023-08-17T11:00:24;24.50;99.90
25923;DHT22;13725;51.170;4.442;2023-08-17T11:03:02;24.10;99.90
25923;DHT22;13725;51.170;4.442;2023-08-17T11:11:11;23.50;99.90
25923;DHT22;13725;51.170;4.442;2023-08-17T11:13:39;23.60;99.90
25923;DHT22;13725;51.170;4.442;2023-08-17T11:16:06;23.60;99.90
25923;DHT22;13725;51.170;4.442;2023-08-17T11:18:33;23.50;99.90
25923;DHT22;13725;51.170;4.442;2023-08-17T11:21:01;23.60;99.90
25923;DHT22;13725;51.170;4.442;2023-08-17T11:23:33;23.80;99.90
25923;DHT22;13725;51.170;4.442;2023-08-17T11:25:59;24.00;99.90
25923;DHT22;13725;51.170;4.442;2023-08-17T11:28:26;24.30;99.90
25923;DHT22;13725;51.170;4.442;2023-08-17T11:31:02;24.20;99.90
25923;DHT22;13725;51.170;4.442;2023-08-17T11:33:29;23.90;99.90
25923;DHT22;13725;51.170;4.442;2023-08-17T11:35:58;23.80;99.90
25923;DHT22;13725;51.170;4.442;2023-08-17T11:38:26;23.90;99.90
25923;DHT22;13725;51.170;4.442;2023-08-17T11:40:57;23.90;99.90
25923;DHT22;13725;51.170;4.442;2023-08-17T11:43:23;24.00;99.90
25923;DHT22;13725;51.170;4.442;2023-08-17T11:45:49;24.10;99.90
25923;DHT22;13725;51.170;4.442;2023-08-17T11:48:15;23.90;99.90
25923;DHT22;13725;51.170;4.442;2023-08-17T11:50:42;23.90;99.90
25923;DHT22;13725;51.170;4.442;2023-08-17T11:53:08;23.80;99.90
25923;DHT22;13725;51.170;4.442;2023-08-17T11:55:34;23.50;99.90
25923;DHT22;13725;51.170;4.442;2023-08-17T11:58:02;23.50;99.90
25923;DHT22;13725;51.170;4.442;2023-08-17T12:00:39;23.60;99.90
25923;DHT22;13725;51.170;4.442;2023-08-17T12:03:06;23.90;99.90
25923;DHT22;13725;51.170;4.442;2023-08-17T12:05:32;24.00;99.90
25923;DHT22;13725;51.170;4.442;2023-08-17T12:08:02;23.90;99.90
25923;DHT22;13725;51.170;4.442;2023-08-17T12:10:37;23.90;99.90
25923;DHT22;13725;51.170;4.442;2023-08-17T12:13:04;24.10;99.90
25923;DHT22;13725;51.170;4.442;2023-08-17T12:15:33;24.30;99.90
25923;DHT22;13725;51.170;4.442;2023-08-17T12:18:03;24.40;99.90
25923;DHT22;13725;51.170;4.442;2023-08-17T12:20:32;24.30;99.90
25923;DHT22;13725;51.170;4.442;2023-08-17T12:23:02;24.20;99.90
25923;DHT22;13725;51.170;4.442;2023-08-17T12:25:28;24.10;99.90
25923;DHT22;13725;51.170;4.442;2023-08-17T12:27:54;24.00;99.90
25923;DHT22;13725;51.170;4.442;2023-08-17T12:30:31;24.00;99.90
25923;DHT22;13725;51.170;4.442;2023-08-17T12:32:58;24.30;99.90
25923;DHT22;13725;51.170;4.442;2023-08-17T12:35:25;24.60;99.90
25923;DHT22;13725;51.170;4.442;2023-08-17T12:37:52;24.70;99.90
25923;DHT22;13725;51.170;4.442;2023-08-17T12:40:18;24.70;99.90
25923;DHT22;13725;51.170;4.442;2023-08-17T12:42:43;24.70;99.90
25923;DHT22;13725;51.170;4.442;2023-08-17T12:45:09;24.70;99.90
25923;DHT22;13725;51.170;4.442;2023-08-17T12:47:35;24.70;99.90
25923;DHT22;13725;51.170;4.442;2023-08-17T12:50:01;24.80;99.90
25923;DHT22;13725;51.170;4.442;2023-08-17T12:52:29;25.00;99.90
25923;DHT22;13725;51.170;4.442;2023-08-17T12:54:54;25.40;99.90
25923;DHT22;13725;51.170;4.442;2023-08-17T12:57:20;25.40;99.90
25923;DHT22;13725;51.170;4.442;2023-08-17T12:59:46;25.60;99.90
25923;DHT22;13725;51.170;4.442;2023-08-17T13:02:12;25.70;99.90
25923;DHT22;13725;51.170;4.442;2023-08-17T13:04:39;25.50;99.90
25923;DHT22;13725;51.170;4.442;2023-08-17T13:07:05;25.20;99.90
25923;DHT22;13725;51.170;4.442;2023-08-17T13:09:30;25.20;99.90
25923;DHT22;13725;51.170;4.442;2023-08-17T13:11:56;25.20;99.90
25923;DHT22;13725;51.170;4.442;2023-08-17T13:14:22;25.10;99.90
25923;DHT22;13725;51.170;4.442;2023-08-17T13:16:50;25.10;99.90
25923;DHT22;13725;51.170;4.442;2023-08-17T13:19:17;24.90;99.90
25923;DHT22;13725;51.170;4.442;2023-08-17T13:21:43;24.70;99.90
25923;DHT22;13725;51.170;4.442;2023-08-17T13:24:09;24.40;99.90
25923;DHT22;13725;51.170;4.442;2023-08-17T13:26:35;24.50;99.90
25923;DHT22;13725;51.170;4.442;2023-08-17T13:29:01;24.70;99.90
25923;DHT22;13725;51.170;4.442;2023-08-17T13:31:27;24.90;99.90
25923;DHT22;13725;51.170;4.442;2023-08-17T13:33:53;24.90;99.90
25923;DHT22;13725;51.170;4.442;2023-08-17T13:36:19;25.10;99.90
25923;DHT22;13725;51.170;4.442;2023-08-17T13:38:45;25.20;99.90
25923;DHT22;13725;51.170;4.442;2023-08-17T13:41:11;25.60;99.90
25923;DHT22;13725;51.170;4.442;2023-08-17T13:43:37;26.00;99.90
25923;DHT22;13725;51.170;4.442;2023-08-17T13:46:04;25.90;99.90
25923;DHT22;13725;51.170;4.442;2023-08-17T13:48:30;25.60;99.90
25923;DHT22;13725;51.170;4.442;2023-08-17T13:50:56;25.40;99.90
25923;DHT22;13725;51.170;4.442;2023-08-17T13:53:22;25.50;99.90
25923;DHT22;13725;51.170;4.442;2023-08-17T13:55:47;25.70;99.90
25923;DHT22;13725;51.170;4.442;2023-08-17T13:58:13;25.80;99.90
25923;DHT22;13725;51.170;4.442;2023-08-17T14:00:41;25.50;99.90
25923;DHT22;13725;51.170;4.442;2023-08-17T14:03:07;25.20;99.90
25923;DHT22;13725;51.170;4.442;2023-08-17T14:05:33;25.30;99.90
25923;DHT22;13725;51.170;4.442;2023-08-17T14:07:59;25.30;99.90
25923;DHT22;13725;51.170;4.442;2023-08-17T14:10:25;25.50;99.90
25923;DHT22;13725;51.170;4.442;2023-08-17T14:12:50;25.20;99.90
25923;DHT22;13725;51.170;4.442;2023-08-17T14:15:16;25.20;99.90
25923;DHT22;13725;51.170;4.442;2023-08-17T14:17:42;25.20;99.90
25923;DHT22;13725;51.170;4.442;2023-08-17T14:20:08;25.00;99.90
25923;DHT22;13725;51.170;4.442;2023-08-17T14:22:34;24.80;99.90
25923;DHT22;13725;51.170;4.442;2023-08-17T14:25:00;24.50;99.90
25923;DHT22;13725;51.170;4.442;2023-08-17T14:27:26;24.30;99.90
25923;DHT22;13725;51.170;4.442;2023-08-17T14:29:52;24.20;99.90
25923;DHT22;13725;51.170;4.442;2023-08-17T14:32:18;24.10;99.90
25923;DHT22;13725;51.170;4.442;2023-08-17T14:34:43;24.20;99.90
25923;DHT22;13725;51.170;4.442;2023-08-17T14:37:09;24.30;99.90
25923;DHT22;13725;51.170;4.442;2023-08-17T14:39:35;24.40;99.90
25923;DHT22;13725;51.170;4.442;2023-08-17T14:42:01;24.60;99.90
25923;DHT22;13725;51.170;4.442;2023-08-17T14:44:26;24.80;99.90
25923;DHT22;13725;51.170;4.442;2023-08-17T14:46:52;25.10;99.90
25923;DHT22;13725;51.170;4.442;2023-08-17T14:49:18;25.40;99.90
25923;DHT22;13725;51.170;4.442;2023-08-17T14:51:44;25.60;99.90
25923;DHT22;13725;51.170;4.442;2023-08-17T14:54:09;25.80;99.90
25923;DHT22;13725;51.170;4.442;2023-08-17T14:56:36;25.60;99.90
25923;DHT22;13725;51.170;4.442;2023-08-17T14:59:01;25.40;99.90
25923;DHT22;13725;51.170;4.442;2023-08-17T15:01:28;25.50;99.90
25923;DHT22;13725;51.170;4.442;2023-08-17T15:03:55;25.80;99.90
25923;DHT22;13725;51.170;4.442;2023-08-17T15:06:21;25.80;99.90
25923;DHT22;13725;51.170;4.442;2023-08-17T15:08:51;25.50;99.90
25923;DHT22;13725;51.170;4.442;2023-08-17T15:11:18;25.10;99.90
25923;DHT22;13725;51.170;4.442;2023-08-17T15:13:44;24.80;99.90
25923;DHT22;13725;51.170;4.442;2023-08-17T15:16:10;24.50;99.90
25923;DHT22;13725;51.170;4.442;2023-08-17T15:18:36;24.30;99.90
25923;DHT22;13725;51.170;4.442;2023-08-17T15:21:02;24.20;99.90
25923;DHT22;13725;51.170;4.442;2023-08-17T15:23:28;24.10;99.90
25923;DHT22;13725;51.170;4.442;2023-08-17T15:25:53;24.10;99.90
25923;DHT22;13725;51.170;4.442;2023-08-17T15:28:19;24.20;99.90
25923;DHT22;13725;51.170;4.442;2023-08-17T15:30:45;24.10;99.90
25923;DHT22;13725;51.170;4.442;2023-08-17T15:33:11;23.80;99.90
25923;DHT22;13725;51.170;4.442;2023-08-17T15:35:36;23.90;99.90
25923;DHT22;13725;51.170;4.442;2023-08-17T15:38:02;23.90;99.90
25923;DHT22;13725;51.170;4.442;2023-08-17T15:40:28;24.00;99.90